createdAt,value
2022-08-11T00:01:27.752Z,22.37
2022-08-11T00:04:03.046Z,22.22
2022-08-11T00:06:40.280Z,22.15
2022-08-11T00:09:11.996Z,22.15
2022-08-11T00:11:48.644Z,22.00
2022-08-11T00:14:24.032Z,22.12
2022-08-11T00:17:09.468Z,22.06
2022-08-11T00:20:15.023Z,21.76
2022-08-11T00:22:36.935Z,21.54
2022-08-11T00:25:12.110Z,21.80
2022-08-11T00:27:42.832Z,21.75
2022-08-11T00:30:14.033Z,21.69
2022-08-11T00:32:44.624Z,21.59
2022-08-11T00:35:51.405Z,21.40
2022-08-11T00:38:09.334Z,21.46
2022-08-11T00:40:43.472Z,21.51
2022-08-11T00:43:23.634Z,21.41
2022-08-11T00:46:12.073Z,21.29
2022-08-11T00:48:48.964Z,21.32
2022-08-11T00:52:02.183Z,21.34
2022-08-11T00:54:52.444Z,21.69
2022-08-11T00:57:50.074Z,21.30
2022-08-11T01:00:19.287Z,21.62
2022-08-11T01:03:14.302Z,21.32
2022-08-11T01:06:30.461Z,21.52
2022-08-11T01:09:22.243Z,21.06
2022-08-11T01:12:13.914Z,21.22
2022-08-11T01:15:21.976Z,21.38
2022-08-11T01:18:29.752Z,21.36
2022-08-11T01:21:25.749Z,21.33
2022-08-11T01:24:36.644Z,21.00
2022-08-11T01:27:22.452Z,20.78
2022-08-11T01:30:19.170Z,21.02
2022-08-11T01:33:42.427Z,20.84
2022-08-11T01:36:56.598Z,21.25
2022-08-11T01:40:12.744Z,21.23
2022-08-11T01:43:36.732Z,20.70
2022-08-11T01:46:12.354Z,20.98
2022-08-11T01:48:45.551Z,21.02
2022-08-11T01:51:24.161Z,20.47
2022-08-11T01:54:02.217Z,20.67
2022-08-11T01:56:48.543Z,20.69
2022-08-11T01:59:22.819Z,20.73
2022-08-11T02:02:07.975Z,20.66
2022-08-11T02:04:51.453Z,20.27
2022-08-11T02:07:32.299Z,20.48
2022-08-11T02:10:38.303Z,20.70
2022-08-11T02:13:19.335Z,20.71
2022-08-11T02:16:11.804Z,20.54
2022-08-11T02:19:04.735Z,20.63
2022-08-11T02:22:07.352Z,20.69
2022-08-11T02:24:50.699Z,20.90
2022-08-11T02:27:23.759Z,20.89
2022-08-11T02:30:06.482Z,20.81
2022-08-11T02:33:06.675Z,20.68
2022-08-11T02:35:45.932Z,20.54
2022-08-11T02:38:24.885Z,20.79
2022-08-11T02:41:04.091Z,20.43
2022-08-11T02:43:50.944Z,20.73
2022-08-11T02:46:25.999Z,20.47
2022-08-11T02:49:30.063Z,20.71
2022-08-11T02:52:07.294Z,20.35
2022-08-11T02:54:54.858Z,20.75
2022-08-11T02:57:29.280Z,20.56
2022-08-11T03:00:07.698Z,20.45
2022-08-11T03:03:05.919Z,20.23
2022-08-11T03:05:55.419Z,20.64
2022-08-11T03:08:45.591Z,20.71
2022-08-11T03:11:37.057Z,20.52
2022-08-11T03:14:33.892Z,20.55
2022-08-11T03:17:12.274Z,20.15
2022-08-11T03:19:50.651Z,20.07
2022-08-11T03:22:25.251Z,20.00
2022-08-11T03:25:03.183Z,20.04
2022-08-11T03:27:47.618Z,20.01
2022-08-11T03:30:19.133Z,20.19
2022-08-11T03:33:19.180Z,20.17
2022-08-11T03:36:05.210Z,20.12
2022-08-11T03:38:46.157Z,20.05
2022-08-11T03:42:01.133Z,19.99
2022-08-11T03:44:44.924Z,20.21
2022-08-11T03:47:38.592Z,20.16
2022-08-11T03:50:23.674Z,20.11
2022-08-11T03:53:06.724Z,19.84
2022-08-11T03:56:08.023Z,20.12
2022-08-11T03:59:10.732Z,20.04
2022-08-11T04:02:10.967Z,20.08
2022-08-11T04:05:27.056Z,20.08
2022-08-11T04:08:34.428Z,19.99
2022-08-11T04:11:37.590Z,20.01
2022-08-11T04:15:11.665Z,19.95
2022-08-11T04:18:07.559Z,19.93
2022-08-11T04:20:58.973Z,19.98
2022-08-11T04:24:36.170Z,19.96
2022-08-11T04:27:40.044Z,19.92
2022-08-11T04:30:14.989Z,19.92
2022-08-11T04:33:10.614Z,19.94
2022-08-11T04:35:53.403Z,19.82
2022-08-11T04:38:58.863Z,19.82
2022-08-11T04:42:36.564Z,19.75
2022-08-11T04:45:34.352Z,19.71
2022-08-11T04:48:43.281Z,19.89
2022-08-11T04:51:51.168Z,19.81
2022-08-11T04:54:51.081Z,19.80
2022-08-11T04:57:53.879Z,19.71
2022-08-11T05:01:03.117Z,19.77
2022-08-11T05:03:55.656Z,19.72
2022-08-11T05:07:14.402Z,19.61
2022-08-11T05:10:11.903Z,19.60
2022-08-11T05:12:44.620Z,19.58
2022-08-11T05:15:33.009Z,19.54
2022-08-11T05:18:35.346Z,19.55
2022-08-11T05:21:27.576Z,19.53
2022-08-11T05:24:21.664Z,19.48
2022-08-11T05:27:13.553Z,19.53
2022-08-11T05:30:03.878Z,19.51
2022-08-11T05:33:01.482Z,19.33
2022-08-11T05:36:01.567Z,19.41
2022-08-11T05:38:47.269Z,19.19
2022-08-11T05:41:33.821Z,19.19
2022-08-11T05:44:23.309Z,19.48
2022-08-11T05:47:10.043Z,19.16
2022-08-11T05:49:58.011Z,19.43
2022-08-11T05:52:49.200Z,19.27
2022-08-11T05:56:02.892Z,19.40
2022-08-11T05:58:41.728Z,19.43
2022-08-11T06:01:13.307Z,19.49
2022-08-11T06:03:59.959Z,19.36
2022-08-11T06:06:29.438Z,19.48
2022-08-11T06:08:59.605Z,19.61
2022-08-11T06:11:42.913Z,19.48
2022-08-11T06:14:15.676Z,19.89
2022-08-11T06:16:50.221Z,19.92
2022-08-11T06:19:23.613Z,20.12
2022-08-11T06:21:54.356Z,20.34
2022-08-11T06:24:23.311Z,20.79
2022-08-11T06:27:11.905Z,20.98
2022-08-11T06:29:54.881Z,22.13
2022-08-11T06:32:32.796Z,22.89
2022-08-11T06:35:19.537Z,23.53
2022-08-11T06:38:03.908Z,24.26
2022-08-11T06:40:39.072Z,24.96
2022-08-11T06:43:16.790Z,25.49
2022-08-11T06:45:54.447Z,26.06
2022-08-11T06:48:26.654Z,26.70
2022-08-11T06:51:12.395Z,26.66
2022-08-11T06:53:57.612Z,26.51
2022-08-11T06:57:12.062Z,25.80
2022-08-11T07:00:00.177Z,26.39
2022-08-11T07:02:34.036Z,25.91
2022-08-11T07:05:09.716Z,25.98
2022-08-11T07:08:38.537Z,27.04
2022-08-11T07:12:00.778Z,26.82
2022-08-11T07:14:49.905Z,27.80
2022-08-11T07:17:22.764Z,28.32
2022-08-11T07:20:12.571Z,28.15
2022-08-11T07:23:02.259Z,28.59
2022-08-11T07:25:50.389Z,28.29
2022-08-11T07:28:43.803Z,28.91
2022-08-11T07:31:15.183Z,30.26
2022-08-11T07:34:05.365Z,30.94
2022-08-11T07:36:51.846Z,32.27
2022-08-11T07:39:24.092Z,31.64
2022-08-11T07:41:57.433Z,31.55
2022-08-11T07:44:34.308Z,31.79
2022-08-11T07:47:21.154Z,30.23
2022-08-11T07:50:10.771Z,30.12
2022-08-11T07:52:40.809Z,30.29
2022-08-11T07:55:17.128Z,30.04
2022-08-11T07:58:16.641Z,31.56
2022-08-11T08:01:10.639Z,30.11
2022-08-11T08:04:08.331Z,29.44
2022-08-11T08:06:55.356Z,30.33
2022-08-11T08:09:42.930Z,31.65
2022-08-11T08:12:32.073Z,31.61
2022-08-11T08:15:20.437Z,32.27
2022-08-11T08:18:08.981Z,32.29
2022-08-11T08:20:50.168Z,30.67
2022-08-11T08:23:33.715Z,30.39
2022-08-11T08:26:05.498Z,30.10
2022-08-11T08:28:36.117Z,30.13
2022-08-11T08:31:04.577Z,30.31
2022-08-11T08:33:34.121Z,31.19
2022-08-11T08:36:15.578Z,32.76
2022-08-11T08:38:48.561Z,33.70
2022-08-11T08:41:23.593Z,33.17
2022-08-11T08:44:02.595Z,32.98
2022-08-11T08:46:49.979Z,33.91
2022-08-11T08:49:23.390Z,33.76
2022-08-11T08:52:02.459Z,31.31
2022-08-11T08:54:47.158Z,29.31
2022-08-11T08:57:18.922Z,27.84
2022-08-11T08:59:51.602Z,27.63
2022-08-11T09:02:34.647Z,27.33
2022-08-11T09:05:05.044Z,27.16
2022-08-11T09:07:39.774Z,26.92
2022-08-11T09:10:11.162Z,26.77
2022-08-11T09:12:42.546Z,26.26
2022-08-11T09:15:15.105Z,26.13
2022-08-11T09:17:50.374Z,25.79
2022-08-11T09:20:21.657Z,25.96
2022-08-11T09:26:18.356Z,26.02
2022-08-11T09:28:49.099Z,26.00
2022-08-11T09:31:22.002Z,25.74
2022-08-11T09:33:55.378Z,25.71
2022-08-11T09:36:42.003Z,25.71
2022-08-11T09:39:30.848Z,25.32
2022-08-11T09:42:03.342Z,25.26
2022-08-11T09:44:49.599Z,25.21
2022-08-11T09:47:24.913Z,25.34
2022-08-11T09:50:00.583Z,25.23
2022-08-11T09:52:32.307Z,25.37
2022-08-11T09:55:02.814Z,25.35
2022-08-11T09:57:48.842Z,24.94
2022-08-11T10:00:18.382Z,25.43
2022-08-11T10:02:50.562Z,25.22
2022-08-11T10:05:38.237Z,25.41
2022-08-11T10:08:08.702Z,25.70
2022-08-11T10:10:39.302Z,25.84
2022-08-11T10:14:04.933Z,26.10
2022-08-11T10:16:15.110Z,26.29
2022-08-11T10:18:53.423Z,26.40
2022-08-11T10:21:38.506Z,26.48
2022-08-11T10:24:26.120Z,26.07
2022-08-11T10:27:00.278Z,26.33
2022-08-11T10:29:51.084Z,26.28
2022-08-11T10:32:59.031Z,26.02
2022-08-11T10:35:32.789Z,26.22
2022-08-11T10:38:07.783Z,26.48
2022-08-11T10:40:40.993Z,26.55
2022-08-11T10:43:14.521Z,26.00
2022-08-11T10:46:19.878Z,25.89
2022-08-11T10:48:59.700Z,26.74
2022-08-11T10:51:51.513Z,26.37
2022-08-11T10:54:40.306Z,26.73
2022-08-11T10:57:27.801Z,26.16
2022-08-11T10:59:58.331Z,25.51
2022-08-11T11:02:28.502Z,26.17
2022-08-11T11:05:09.551Z,26.71
2022-08-11T11:07:44.733Z,27.51
2022-08-11T11:10:13.781Z,28.81
2022-08-11T11:13:03.264Z,30.00
2022-08-11T11:15:53.343Z,30.37
2022-08-11T11:18:25.274Z,31.06
2022-08-11T11:20:58.749Z,32.01
2022-08-11T11:23:35.410Z,32.34
2022-08-11T11:26:29.620Z,31.71
2022-08-11T11:29:24.979Z,31.44
2022-08-11T11:32:05.274Z,30.55
2022-08-11T11:35:02.271Z,31.68
2022-08-11T11:38:06.760Z,32.63
2022-08-11T11:40:40.341Z,33.66
2022-08-11T11:43:09.559Z,34.33
2022-08-11T11:45:38.426Z,34.07
2022-08-11T11:48:07.874Z,35.35
2022-08-11T11:50:38.740Z,34.86
2022-08-11T11:53:11.002Z,34.31
2022-08-11T11:55:42.565Z,33.21
2022-08-11T11:58:29.107Z,32.66
2022-08-11T12:01:18.103Z,32.76
2022-08-11T12:03:48.843Z,32.53
2022-08-11T12:06:19.485Z,32.51
2022-08-11T12:08:52.167Z,32.31
2022-08-11T12:11:43.620Z,31.71
2022-08-11T12:14:13.344Z,31.52
2022-08-11T12:16:44.830Z,32.22
2022-08-11T12:19:16.924Z,32.45
2022-08-11T12:22:01.341Z,33.14
2022-08-11T12:24:48.645Z,33.08
2022-08-11T12:27:25.149Z,32.56
2022-08-11T12:29:58.521Z,31.98
2022-08-11T12:32:31.536Z,32.00
2022-08-11T12:35:01.649Z,31.89
2022-08-11T12:37:33.148Z,32.33
2022-08-11T12:40:42.536Z,32.09
2022-08-11T12:43:38.129Z,32.11
2022-08-11T12:46:13.328Z,32.49
2022-08-11T12:49:14.988Z,31.86
2022-08-11T12:52:12.816Z,31.50
2022-08-11T12:54:54.532Z,30.96
2022-08-11T12:58:11.046Z,31.51
2022-08-11T13:00:59.134Z,31.50
2022-08-11T13:03:52.514Z,31.71
2022-08-11T13:06:26.509Z,31.48
2022-08-11T13:09:01.042Z,31.49
2022-08-11T13:11:56.800Z,31.12
2022-08-11T13:14:27.781Z,30.90
2022-08-11T13:17:15.392Z,30.95
2022-08-11T13:19:48.963Z,31.50
2022-08-11T13:22:20.009Z,31.11
2022-08-11T13:24:52.031Z,31.30
2022-08-11T13:27:22.489Z,31.52
2022-08-11T13:30:14.635Z,31.70
2022-08-11T13:32:47.435Z,31.51
2022-08-11T13:35:17.205Z,31.32
2022-08-11T13:38:17.976Z,30.55
2022-08-11T13:40:54.804Z,30.03
2022-08-11T13:43:25.292Z,30.29
2022-08-11T13:46:14.745Z,30.46
2022-08-11T13:48:45.147Z,30.81
2022-08-11T13:51:35.247Z,30.65
2022-08-11T13:54:06.044Z,30.46
2022-08-11T13:56:36.981Z,30.37
2022-08-11T13:59:05.868Z,30.11
2022-08-11T14:02:21.345Z,30.33
2022-08-11T14:04:33.701Z,29.23
2022-08-11T14:07:06.483Z,29.11
2022-08-11T14:09:39.136Z,29.20
2022-08-11T14:12:30.640Z,28.82
2022-08-11T14:15:08.410Z,28.52
2022-08-11T14:17:48.234Z,28.98
2022-08-11T14:20:38.967Z,29.15
2022-08-11T14:23:15.221Z,29.29
2022-08-11T14:26:05.041Z,29.33
2022-08-11T14:28:40.316Z,30.12
2022-08-11T14:31:15.888Z,29.91
2022-08-11T14:33:58.504Z,30.01
2022-08-11T14:36:35.432Z,30.17
2022-08-11T14:39:08.321Z,30.43
2022-08-11T14:42:10.575Z,30.38
2022-08-11T14:45:03.349Z,30.45
2022-08-11T14:47:35.251Z,30.05
2022-08-11T14:50:11.847Z,30.35
2022-08-11T14:52:50.595Z,30.19
2022-08-11T14:55:38.049Z,30.12
2022-08-11T14:58:10.011Z,30.19
2022-08-11T15:00:39.988Z,30.07
2022-08-11T15:03:11.399Z,29.84
2022-08-11T15:05:56.602Z,29.54
2022-08-11T15:08:51.266Z,29.49
2022-08-11T15:11:39.794Z,29.73
2022-08-11T15:14:09.853Z,29.33
2022-08-11T15:16:59.546Z,28.87
2022-08-11T15:19:40.167Z,28.84
2022-08-11T15:22:29.851Z,28.97
2022-08-11T15:25:00.963Z,29.15
2022-08-11T15:27:49.848Z,28.55
2022-08-11T15:30:35.983Z,28.82
2022-08-11T15:33:25.515Z,28.79
2022-08-11T15:36:13.370Z,28.64
2022-08-11T15:38:45.876Z,28.69
2022-08-11T15:41:36.754Z,28.88
2022-08-11T15:44:51.439Z,28.66
2022-08-11T15:47:21.823Z,28.37
2022-08-11T15:50:12.040Z,28.66
2022-08-11T15:52:49.117Z,28.38
2022-08-11T15:55:18.868Z,28.41
2022-08-11T15:58:09.298Z,28.26
2022-08-11T16:01:02.029Z,28.15
2022-08-11T16:04:07.105Z,28.03
2022-08-11T16:06:44.827Z,28.16
2022-08-11T16:09:19.358Z,27.94
2022-08-11T16:11:50.467Z,28.13
2022-08-11T16:14:39.690Z,28.17
2022-08-11T16:17:12.841Z,27.83
2022-08-11T16:19:44.236Z,27.56
2022-08-11T16:22:16.287Z,27.91
2022-08-11T16:27:02.835Z,27.94
2022-08-11T16:28:05.481Z,27.91
2022-08-11T16:30:38.063Z,28.02
2022-08-11T16:33:48.170Z,27.81
2022-08-11T16:36:14.603Z,27.77
2022-08-11T16:38:45.186Z,27.41
2022-08-11T16:41:17.298Z,27.62
2022-08-11T16:44:06.666Z,27.60
2022-08-11T16:46:54.956Z,27.42
2022-08-11T16:49:32.835Z,27.14
2022-08-11T16:52:05.555Z,27.14
2022-08-11T16:54:34.994Z,27.37
2022-08-11T16:57:20.808Z,27.36
2022-08-11T16:59:54.813Z,27.33
2022-08-11T17:02:51.782Z,26.90
2022-08-11T17:05:53.760Z,27.04
2022-08-11T17:08:54.235Z,27.08
2022-08-11T17:11:46.170Z,27.14
2022-08-11T17:14:35.303Z,27.19
2022-08-11T17:17:07.445Z,27.10
2022-08-11T17:20:38.422Z,27.17
2022-08-11T17:22:50.326Z,26.98
2022-08-11T17:25:20.778Z,26.88
2022-08-11T17:27:52.101Z,27.10
2022-08-11T17:30:21.310Z,27.03
2022-08-11T17:33:10.227Z,26.98
2022-08-11T17:35:44.913Z,26.89
2022-08-11T17:38:18.462Z,26.81
2022-08-11T17:41:03.355Z,26.82
2022-08-11T17:43:49.205Z,26.58
2022-08-11T17:46:36.245Z,26.46
2022-08-11T17:49:07.817Z,26.55
2022-08-11T17:51:56.900Z,26.20
2022-08-11T17:54:44.542Z,26.19
2022-08-11T17:57:33.173Z,26.06
2022-08-11T18:00:03.790Z,26.10
2022-08-11T18:02:59.680Z,25.78
2022-08-11T18:05:31.180Z,25.99
2022-08-11T18:08:20.187Z,25.83
2022-08-11T18:11:07.328Z,25.84
2022-08-11T18:13:59.603Z,26.01
2022-08-11T18:16:45.540Z,25.99
2022-08-11T18:19:32.206Z,25.97
2022-08-11T18:22:26.825Z,25.87
2022-08-11T18:25:18.626Z,25.74
2022-08-11T18:28:07.684Z,25.62
2022-08-11T18:31:03.690Z,25.45
2022-08-11T18:34:07.077Z,25.01
2022-08-11T18:36:57.363Z,25.32
2022-08-11T18:39:46.129Z,25.09
2022-08-11T18:42:46.257Z,24.91
2022-08-11T18:45:46.243Z,24.97
2022-08-11T18:48:37.315Z,24.48
2022-08-11T18:51:31.248Z,24.58
2022-08-11T18:54:27.912Z,24.60
2022-08-11T18:57:16.991Z,24.38
2022-08-11T19:00:05.875Z,24.46
2022-08-11T19:03:00.764Z,24.04
2022-08-11T19:06:31.627Z,24.23
2022-08-11T19:09:12.621Z,23.95
2022-08-11T19:12:03.564Z,24.15
2022-08-11T19:14:53.620Z,23.79
2022-08-11T19:17:46.390Z,23.99
2022-08-11T19:21:03.678Z,23.66
2022-08-11T19:27:01.825Z,23.66
2022-08-11T19:30:05.206Z,23.69
2022-08-11T19:33:01.415Z,23.62
2022-08-11T19:36:23.884Z,23.43
2022-08-11T19:39:22.903Z,23.02
2022-08-11T19:42:11.037Z,23.36
2022-08-11T19:49:06.528Z,22.59
2022-08-11T19:51:55.578Z,22.57
2022-08-11T19:54:44.710Z,22.67
2022-08-11T19:57:39.686Z,22.94
2022-08-11T20:00:30.583Z,22.41
2022-08-11T20:03:47.285Z,22.60
2022-08-11T20:10:28.403Z,22.68
2022-08-11T20:13:20.593Z,22.67
2022-08-11T20:16:14.050Z,22.71
2022-08-11T20:19:02.486Z,22.63
2022-08-11T20:25:14.677Z,22.43
2022-08-11T20:31:20.414Z,22.57
2022-08-11T20:34:07.046Z,22.32
2022-08-11T20:36:57.863Z,22.31
2022-08-11T20:39:44.920Z,22.12
2022-08-11T20:42:32.121Z,22.07
2022-08-11T20:45:24.031Z,22.02
2022-08-11T20:48:15.063Z,21.85
2022-08-11T20:51:05.995Z,21.97
2022-08-11T20:53:56.889Z,21.92
2022-08-11T20:56:45.672Z,22.00
2022-08-11T20:59:49.336Z,22.01
2022-08-11T21:02:41.014Z,21.98
2022-08-11T21:06:08.554Z,21.87
2022-08-11T21:08:38.196Z,21.92
2022-08-11T21:11:31.009Z,21.94
2022-08-11T21:14:18.977Z,21.80
2022-08-11T21:17:26.980Z,21.65
2022-08-11T21:20:21.123Z,21.80
2022-08-11T21:23:19.898Z,21.78
2022-08-11T21:26:15.753Z,21.41
2022-08-11T21:29:04.506Z,21.66
2022-08-11T21:31:52.651Z,21.62
2022-08-11T21:34:41.229Z,21.56
2022-08-11T21:37:28.669Z,21.53
2022-08-11T21:40:19.334Z,21.45
2022-08-11T21:43:07.478Z,21.17
2022-08-11T21:45:56.733Z,21.23
2022-08-11T21:48:45.769Z,21.00
2022-08-11T21:51:31.945Z,21.16
2022-08-11T21:54:19.578Z,21.34
2022-08-11T21:57:06.341Z,21.23
2022-08-11T22:00:00.626Z,21.06
2022-08-11T22:02:53.385Z,20.93
2022-08-11T22:05:40.941Z,21.01
2022-08-11T22:08:27.657Z,20.76
2022-08-11T22:11:13.919Z,20.91
2022-08-11T22:14:06.223Z,20.95
2022-08-11T22:16:54.352Z,20.80
2022-08-11T22:19:42.956Z,20.47
2022-08-11T22:22:30.105Z,20.60
2022-08-11T22:25:18.423Z,20.73
2022-08-11T22:28:05.029Z,20.58
2022-08-11T22:30:51.282Z,20.58
2022-08-11T22:33:46.535Z,20.61
2022-08-11T22:36:47.875Z,20.59
2022-08-11T22:39:35.715Z,20.33
2022-08-11T22:42:33.067Z,20.49
2022-08-11T22:45:28.697Z,20.25
2022-08-11T22:48:16.962Z,20.42
2022-08-11T22:51:04.139Z,20.21
2022-08-11T22:53:58.529Z,20.18
2022-08-11T22:56:45.570Z,20.19
2022-08-11T22:59:33.085Z,20.15
2022-08-11T23:02:19.582Z,19.94
2022-08-11T23:05:07.369Z,20.06
2022-08-11T23:07:53.846Z,20.05
2022-08-11T23:10:42.195Z,19.73
2022-08-11T23:13:28.947Z,19.87
2022-08-11T23:16:15.074Z,20.00
2022-08-11T23:19:01.608Z,19.89
2022-08-11T23:21:49.184Z,19.70
2022-08-11T23:24:36.424Z,19.88
2022-08-11T23:27:25.022Z,19.83
2022-08-11T23:30:14.029Z,19.82
2022-08-11T23:33:05.100Z,19.54
2022-08-11T23:35:56.490Z,19.42
2022-08-11T23:38:44.780Z,19.50
2022-08-11T23:41:34.060Z,19.39
2022-08-11T23:44:23.648Z,19.37
2022-08-11T23:47:13.558Z,19.37
2022-08-11T23:50:01.258Z,19.22
2022-08-11T23:52:47.899Z,19.10
2022-08-11T23:55:34.442Z,18.79
2022-08-11T23:58:20.479Z,18.98
